La Crosse, WI

10:18 AM CDT on May 27, 2015 (GMT -0500)
APRSWXNET | | Change Station
CLOSE
Current Station
Personal Weather Station
Location: La Crosse, WI
Elevation: 1272 ft
Nearby Weather Stations

Elev 1272 ft 43.82 °N, 91.19 °W | Updated 58 minutes ago

Partly Cloudy
Partly Cloudy
60 °F
Feels Like 60 °F
N
3
Wind Variable Wind from WNW
Gusts 8.0 mph

Today
High -- | Low -- °F
--% Chance of Precip.
Yesterday
High -- | Low -- °F
Precip. -- in
5:28 AM 8:35 PM
Waxing Gibbous, 68% visible
Pressure 29.94 in
Visibility 10.0 miles
Clouds Clear
Dew Point 59 °F
Humidity 95%
Rainfall in
Snow Depth Not available.
UV 6 out of 12
Pollen 6.70 out of 12
Air Quality Not available.
Flu Activity Sporadic
METAR KLSE 271453Z 00000KT 10SM CLR 19/14 A2995 RMK AO2 SLP136 T01940139 50004

More Conditions Fewer Conditions

Pressure 29.94 in
Visibility 10.0 miles
Clouds Clear
Dew Point 59 °F
Humidity 95%
Rainfall in
Snow Depth Not available.
UV 6 out of 12
Pollen 6.70 out of 12
Air Quality Not available.
Flu Activity Sporadic
METAR KLSE 271453Z 00000KT 10SM CLR 19/14 A2995 RMK AO2 SLP136 T01940139 50004

More Conditions Fewer Conditions

10-Day Weather Forecast

Almanac

Astronomy

May. 27, 2015 Rise Set
Actual Time
Civil Twilight
Nautical Twilight
Astronomical Twilight
Moon
Length of Visible Light
Length of Day
Tomorrow will be .
, % of the Moon is Illuminated

Today's Extremes

State Highs State Lows

Community

WunderPhotos

Upload Photos

1,824,695 photos uploaded!

WunderBlogs® & News

Nearby

Air Quality

  Air Quality AQ Index Pollutant
Not available.

Snow Depth

Station Depth Elevation

Earthquake Activity

City Distance Mag. Time & Date
Minimum magnitude displayed is 2.5.

Coastal Water Temperatures

Place Temperature

Stations

Nearby Weather Stations

Station Location Temp. Windchill Dew Point Humidity Wind Precip. Elev Updated Type